Time;durP1;ratioP1;P1;durP2;ratioP2;P2;SDS_P1;SDS_P2;PMS_P1;PMS_P2;Temp;Humidity;BMP_temperature;BMP_pressure;BME280_temperature;BME280_humidity;BME280_pressure;Samples;Min_cycle;Max_cycle;Signal;HPM_P1;HPM_P2
2023/11/15 00:01:27;;;;;;;0.00;0.00;;;;;;;10.53;71.49;100383.69;7368466;19;20102;-63
2023/11/15 00:03:53;;;;;;;0.10;0.10;;;;;;;10.63;71.05;100420.84;7366125;19;20424;-63
2023/11/15 00:06:19;;;;;;;0.00;0.00;;;;;;;10.54;71.39;100398.50;7368970;19;20034;-63
2023/11/15 00:08:45;;;;;;;0.10;0.10;;;;;;;10.63;71.81;100420.84;7370123;19;20021;-63
2023/11/15 00:11:10;;;;;;;0.00;0.00;;;;;;;10.60;71.62;100421.81;7363184;19;20078;-63
2023/11/15 00:13:36;;;;;;;0.00;0.00;;;;;;;10.38;71.90;100389.34;7365802;19;20006;-63
2023/11/15 00:16:02;;;;;;;0.08;0.08;;;;;;;10.52;71.65;100413.31;7363431;19;20018;-63
2023/11/15 00:18:27;;;;;;;0.00;0.00;;;;;;;10.56;71.52;100422.78;7368528;19;20038;-63
2023/11/15 00:20:53;;;;;;;0.00;0.00;;;;;;;10.50;71.49;100425.56;7368815;19;20786;-63
2023/11/15 00:23:18;;;;;;;0.10;0.10;;;;;;;10.55;71.79;100434.13;7365419;19;20010;-63
2023/11/15 00:25:45;;;;;;;0.10;0.10;;;;;;;10.56;71.69;100446.28;7363899;19;20015;-62
2023/11/15 00:28:10;;;;;;;0.00;0.00;;;;;;;10.46;71.75;100423.09;7366180;19;20490;-62
2023/11/15 00:30:35;;;;;;;0.10;0.10;;;;;;;10.49;71.48;100434.31;7372569;19;20042;-63
2023/11/15 00:33:01;;;;;;;0.00;0.00;;;;;;;10.50;71.38;100435.16;7367033;19;20015;-63
2023/11/15 00:35:28;;;;;;;0.00;0.00;;;;;;;10.45;71.44;100431.81;7365936;19;20021;-63
2023/11/15 00:37:54;;;;;;;0.10;0.10;;;;;;;10.48;71.48;100435.19;7362539;19;20094;-63
2023/11/15 00:40:20;;;;;;;0.00;0.00;;;;;;;10.43;71.53;100429.22;7363455;19;20036;-63
2023/11/15 00:42:45;;;;;;;0.00;0.00;;;;;;;10.43;71.17;100446.66;7365907;19;20050;-63
2023/11/15 00:45:14;;;;;;;0.10;0.10;;;;;;;10.47;71.68;100446.53;7366625;19;20478;-63
2023/11/15 00:47:39;;;;;;;0.00;0.00;;;;;;;10.36;71.34;100456.41;7366604;19;20006;-63
2023/11/15 00:50:07;;;;;;;0.10;0.10;;;;;;;10.44;71.46;100456.19;7368946;19;20038;-63
2023/11/15 00:52:33;;;;;;;0.00;0.00;;;;;;;10.40;71.67;100455.44;7355042;19;20010;-63
2023/11/15 00:54:58;;;;;;;0.00;0.00;;;;;;;10.38;71.59;100465.03;7369934;19;20018;-62
2023/11/15 00:57:24;;;;;;;0.00;0.00;;;;;;;10.33;71.46;100464.28;7359208;19;20006;-63
2023/11/15 00:59:53;;;;;;;0.10;0.10;;;;;;;10.36;71.64;100469.44;7361866;19;20645;-63
2023/11/15 01:02:26;;;;;;;0.03;0.03;;;;;;;10.35;71.46;100465.13;7363383;19;20007;-62
2023/11/15 01:04:52;;;;;;;0.10;0.10;;;;;;;10.21;71.51;100444.56;7367453;19;20437;-63
2023/11/15 01:07:18;;;;;;;0.00;0.00;;;;;;;10.34;71.64;100479.06;7368609;19;20023;-62
2023/11/15 01:09:43;;;;;;;0.00;0.00;;;;;;;10.28;71.56;100461.81;7368680;19;20407;-63
2023/11/15 01:12:08;;;;;;;0.00;0.00;;;;;;;10.28;71.45;100484.44;7362833;19;20426;-63
2023/11/15 01:14:34;;;;;;;0.00;0.00;;;;;;;10.30;71.61;100485.28;7363190;19;20010;-63
2023/11/15 01:17:00;;;;;;;0.10;0.10;;;;;;;10.29;71.17;100489.63;7363283;19;20500;-62
2023/11/15 01:19:25;;;;;;;0.00;0.00;;;;;;;10.20;71.49;100482.00;7368041;19;20010;-63
2023/11/15 01:21:52;;;;;;;0.10;0.10;;;;;;;10.16;71.29;100485.56;7363261;19;20010;-63
2023/11/15 01:24:18;;;;;;;0.10;0.10;;;;;;;10.18;71.27;100488.13;7362612;19;20007;-63
2023/11/15 01:26:44;;;;;;;0.05;0.05;;;;;;;10.23;71.39;100491.47;7366147;19;20094;-63
2023/11/15 01:29:09;;;;;;;0.10;0.10;;;;;;;10.21;71.54;100511.56;7364204;19;20038;-63
2023/11/15 01:31:34;;;;;;;0.00;0.00;;;;;;;10.20;71.56;100508.09;7362317;19;20010;-63
2023/11/15 01:34:00;;;;;;;0.00;0.00;;;;;;;10.21;70.98;100508.94;7360477;19;20363;-63
2023/11/15 01:36:25;;;;;;;0.10;0.10;;;;;;;10.08;71.37;100501.41;7361853;19;20085;-62
2023/11/15 01:38:51;;;;;;;0.00;0.00;;;;;;;10.18;71.18;100511.63;7367757;19;20007;-63
2023/11/15 01:41:17;;;;;;;0.00;0.00;;;;;;;10.17;71.19;100509.91;7359625;19;20355;-63
2023/11/15 01:43:44;;;;;;;0.03;0.03;;;;;;;10.14;71.22;100519.53;7366490;19;20013;-63
2023/11/15 01:46:10;;;;;;;0.00;0.00;;;;;;;10.13;71.23;100520.41;7365718;19;20101;-63
2023/11/15 01:48:36;;;;;;;0.05;0.05;;;;;;;10.12;71.46;100518.69;7361126;19;20473;-63
2023/11/15 01:51:02;;;;;;;0.10;0.10;;;;;;;10.11;71.37;100511.78;7365252;19;20015;-63
2023/11/15 01:53:29;;;;;;;0.10;0.10;;;;;;;10.09;71.30;100504.88;7364905;19;20031;-63
2023/11/15 01:55:54;;;;;;;0.10;0.10;;;;;;;10.10;71.40;100504.00;7365881;19;20022;-63
2023/11/15 01:58:25;;;;;;;0.00;0.00;;;;;;;10.08;71.04;100516.19;7365234;19;20010;-63
2023/11/15 02:00:51;;;;;;;0.10;0.10;;;;;;;10.04;71.44;100511.97;7364431;19;20493;-63
2023/11/15 02:03:18;;;;;;;0.00;0.00;;;;;;;10.04;71.19;100530.22;7359306;19;20006;-63
2023/11/15 02:05:45;;;;;;;0.00;0.00;;;;;;;10.08;71.28;100535.31;7366824;19;20359;-63
2023/11/15 02:08:10;;;;;;;0.10;0.10;;;;;;;10.06;70.78;100534.50;7367062;19;20561;-63
2023/11/15 02:10:36;;;;;;;0.00;0.00;;;;;;;10.04;71.18;100536.31;7359939;19;20020;-63
2023/11/15 02:13:01;;;;;;;0.00;0.00;;;;;;;9.77;70.99;100482.16;7367975;19;20446;-63
2023/11/15 02:15:26;;;;;;;0.00;0.00;;;;;;;10.01;71.04;100538.97;7362507;19;20017;-63
2023/11/15 02:17:54;;;;;;;0.03;0.03;;;;;;;9.88;71.03;100509.72;7368480;19;20010;-62
2023/11/15 02:20:20;;;;;;;0.10;0.10;;;;;;;9.94;70.85;100540.00;7369731;19;20018;-63
2023/11/15 02:22:50;;;;;;;0.10;0.10;;;;;;;10.00;71.06;100541.63;7357690;19;20011;-63
2023/11/15 02:25:16;;;;;;;0.10;0.10;;;;;;;9.90;71.01;100533.16;7364900;19;20010;-63
2023/11/15 02:27:43;;;;;;;0.00;0.00;;;;;;;9.96;71.16;100538.22;7363046;19;20018;-63
2023/11/15 02:30:09;;;;;;;0.00;0.00;;;;;;;9.95;71.12;100557.38;7365873;19;20597;-63
2023/11/15 02:32:41;;;;;;;0.05;0.05;;;;;;;9.96;70.79;100558.22;7358926;19;20046;-62
2023/11/15 02:35:10;;;;;;;0.00;0.00;;;;;;;9.88;70.58;100553.16;7365044;19;20530;-63
2023/11/15 02:37:36;;;;;;;0.00;0.00;;;;;;;9.91;71.14;100573.97;7365015;19;20018;-63
2023/11/15 02:40:09;;;;;;;0.03;0.03;;;;;;;9.85;71.16;100563.69;7363577;19;20650;-63
2023/11/15 02:42:34;;;;;;;0.00;0.00;;;;;;;9.90;70.85;100564.44;7361191;19;20018;-63
2023/11/15 02:45:00;;;;;;;0.10;0.10;;;;;;;9.74;70.79;100553.50;7364834;19;20387;-63
2023/11/15 02:47:26;;;;;;;0.08;0.08;;;;;;;9.77;70.53;100553.41;7365476;19;20045;-63
2023/11/15 02:49:53;;;;;;;0.00;0.00;;;;;;;9.83;71.10;100562.84;7363881;19;20017;-62
2023/11/15 02:52:18;;;;;;;0.10;0.10;;;;;;;9.88;70.70;100567.09;7358282;19;20011;-63
2023/11/15 02:54:44;;;;;;;0.00;0.00;;;;;;;9.88;70.80;100581.84;7363088;19;20002;-63
2023/11/15 02:57:11;;;;;;;0.10;0.10;;;;;;;9.78;70.70;100555.16;7362029;19;19999;-63
2023/11/15 02:59:37;;;;;;;0.10;0.10;;;;;;;9.86;70.97;100573.22;7359074;19;20014;-63
2023/11/15 03:02:03;;;;;;;0.00;0.00;;;;;;;9.84;70.62;100577.63;7362441;19;20014;-63
2023/11/15 03:04:29;;;;;;;0.05;0.05;;;;;;;9.72;71.00;100550.03;7367085;19;20018;-63
2023/11/15 03:06:54;;;;;;;0.05;0.05;;;;;;;9.80;71.02;100570.75;7361917;19;20010;-63
2023/11/15 03:09:20;;;;;;;0.00;0.00;;;;;;;9.84;71.06;100585.44;7361933;19;20034;-63
2023/11/15 03:11:46;;;;;;;0.10;0.10;;;;;;;9.71;70.90;100563.13;7354411;19;20022;-62
2023/11/15 03:14:11;;;;;;;0.10;0.10;;;;;;;9.70;70.74;100561.41;7364495;19;20007;-63
2023/11/15 03:16:37;;;;;;;0.00;0.00;;;;;;;9.81;70.88;100585.50;7369359;19;20002;-63
2023/11/15 03:19:02;;;;;;;0.00;0.00;;;;;;;9.80;70.58;100596.84;7368004;19;20010;-63
2023/11/15 03:21:28;;;;;;;0.10;0.10;;;;;;;9.78;70.73;100601.19;7368318;19;20010;-63
2023/11/15 03:23:53;;;;;;;0.00;0.00;;;;;;;9.77;70.93;100609.91;7354385;19;20090;-63
2023/11/15 03:26:19;;;;;;;0.00;0.00;;;;;;;9.76;71.17;100603.00;7370001;19;20013;-63
2023/11/15 03:28:44;;;;;;;0.00;0.00;;;;;;;9.58;71.10;100573.81;7368922;19;20520;-63
2023/11/15 03:31:12;;;;;;;0.00;0.00;;;;;;;9.74;71.13;100612.63;7362641;19;20006;-63
2023/11/15 03:33:38;;;;;;;0.10;0.10;;;;;;;9.73;70.77;100613.47;7371109;19;20073;-63
2023/11/15 03:36:04;;;;;;;0.00;0.00;;;;;;;9.61;70.82;100588.53;7365855;19;20578;-63
2023/11/15 03:38:30;;;;;;;0.00;0.00;;;;;;;9.69;71.07;100601.41;7364710;19;20029;-63
2023/11/15 03:40:55;;;;;;;0.10;0.10;;;;;;;9.69;71.08;100615.31;7371834;19;20010;-63
2023/11/15 03:43:21;;;;;;;0.00;0.00;;;;;;;9.64;71.23;100608.47;7359862;19;20023;-63
2023/11/15 03:45:46;;;;;;;0.03;0.03;;;;;;;9.47;71.36;100577.50;7369346;19;20015;-63
2023/11/15 03:48:12;;;;;;;0.10;0.10;;;;;;;9.65;71.37;100610.19;7366951;19;20075;-63
2023/11/15 03:50:37;;;;;;;0.00;0.00;;;;;;;9.67;70.92;100613.59;7369445;19;20580;-63
2023/11/15 03:53:02;;;;;;;0.10;0.10;;;;;;;9.57;71.09;100605.97;7369363;19;20110;-62
2023/11/15 03:55:30;;;;;;;0.00;0.00;;;;;;;9.52;70.77;100599.97;7360564;19;20002;-63
2023/11/15 03:57:55;;;;;;;0.10;0.10;;;;;;;9.53;70.84;100614.75;7368857;19;20445;-63
2023/11/15 04:00:22;;;;;;;0.05;0.05;;;;;;;9.58;70.73;100620.75;7368541;19;20337;-63
2023/11/15 04:02:47;;;;;;;0.00;0.00;;;;;;;9.60;71.26;100634.59;7369028;19;20010;-63
2023/11/15 04:05:16;;;;;;;0.00;0.00;;;;;;;9.45;71.28;100614.03;7366018;19;20018;-63
2023/11/15 04:07:41;;;;;;;0.00;0.00;;;;;;;9.58;71.30;100633.78;7371282;19;20426;-63
2023/11/15 04:10:09;;;;;;;0.00;0.00;;;;;;;9.59;70.92;100626.81;7369020;19;20009;-63
2023/11/15 04:12:34;;;;;;;0.00;0.00;;;;;;;9.56;71.09;100627.72;7366818;19;20019;-63
2023/11/15 04:15:00;;;;;;;0.00;0.00;;;;;;;9.52;71.34;100626.06;7350420;19;20772;-63
2023/11/15 04:17:26;;;;;;;0.10;0.10;;;;;;;9.54;71.25;100629.50;7359358;19;20664;-63
2023/11/15 04:19:51;;;;;;;0.00;0.00;;;;;;;9.56;71.21;100642.50;7349195;19;20069;-63
2023/11/15 04:22:16;;;;;;;0.10;0.10;;;;;;;9.40;71.20;100615.03;7365343;19;20010;-63
2023/11/15 04:24:44;;;;;;;0.10;0.10;;;;;;;9.53;71.24;100633.00;7364648;19;20022;-62
2023/11/15 04:27:10;;;;;;;0.10;0.10;;;;;;;9.53;70.67;100637.34;7366431;19;20002;-63
2023/11/15 04:29:39;;;;;;;0.00;0.00;;;;;;;9.49;70.67;100635.72;7365790;19;20048;-63
2023/11/15 04:32:06;;;;;;;0.10;0.10;;;;;;;9.50;70.71;100637.41;7367635;19;20006;-63
2023/11/15 04:34:31;;;;;;;0.00;0.00;;;;;;;9.38;70.78;100635.03;7367102;19;20117;-63
2023/11/15 04:36:57;;;;;;;0.00;0.00;;;;;;;9.27;70.91;100630.00;7370118;19;20025;-63
2023/11/15 04:39:24;;;;;;;0.05;0.05;;;;;;;9.44;71.02;100642.75;7365858;19;20010;-63
2023/11/15 04:41:50;;;;;;;0.00;0.00;;;;;;;9.36;70.60;100648.09;7367336;19;20019;-63
2023/11/15 04:44:16;;;;;;;0.10;0.10;;;;;;;9.34;70.67;100649.88;7357512;19;20018;-63
2023/11/15 04:46:42;;;;;;;0.10;0.10;;;;;;;9.39;70.47;100658.47;7370893;19;20923;-63
2023/11/15 04:49:07;;;;;;;0.00;0.00;;;;;;;9.34;70.98;100658.56;7371454;19;20422;-63
2023/11/15 04:51:33;;;;;;;0.00;0.00;;;;;;;9.36;70.54;100681.97;7365902;19;20009;-62
2023/11/15 04:53:58;;;;;;;0.00;0.00;;;;;;;9.18;70.41;100645.84;7368702;19;20011;-63
2023/11/15 04:56:24;;;;;;;0.00;0.00;;;;;;;9.21;70.67;100661.41;7368746;19;20010;-63
2023/11/15 04:58:50;;;;;;;0.05;0.05;;;;;;;9.31;70.40;100682.06;7365888;19;20034;-63
2023/11/15 05:01:16;;;;;;;0.08;0.08;;;;;;;9.15;70.46;100653.69;7366842;19;20003;-63
2023/11/15 05:03:41;;;;;;;0.10;0.10;;;;;;;9.24;70.42;100672.63;7366693;19;20490;-63
2023/11/15 05:06:07;;;;;;;0.00;0.00;;;;;;;9.18;70.58;100666.69;7364073;19;20006;-63
2023/11/15 05:08:33;;;;;;;0.10;0.10;;;;;;;9.19;70.58;100669.25;7366908;19;20017;-63
2023/11/15 05:10:58;;;;;;;0.00;0.00;;;;;;;9.19;70.78;100664.03;7359994;19;20015;-63
2023/11/15 05:13:23;;;;;;;0.10;0.10;;;;;;;9.06;70.50;100650.34;7358242;19;20019;-63
2023/11/15 05:15:49;;;;;;;0.10;0.10;;;;;;;9.16;70.38;100668.44;7363377;19;19999;-63
2023/11/15 05:18:15;;;;;;;0.00;0.00;;;;;;;9.11;70.34;100665.91;7367752;19;20021;-62
2023/11/15 05:20:40;;;;;;;0.00;0.00;;;;;;;9.17;70.27;100680.56;7363442;19;20025;-63
2023/11/15 05:23:06;;;;;;;0.10;0.10;;;;;;;9.17;70.58;100691.00;7357260;19;20022;-63
2023/11/15 05:25:32;;;;;;;0.00;0.00;;;;;;;9.12;70.65;100677.19;7373202;19;20665;-63
2023/11/15 05:27:58;;;;;;;0.10;0.10;;;;;;;9.14;70.39;100691.06;7355735;19;20032;-63
2023/11/15 05:30:23;;;;;;;0.10;0.10;;;;;;;9.00;70.59;100673.06;7361531;19;20483;-63
2023/11/15 05:32:49;;;;;;;0.10;0.10;;;;;;;9.05;70.58;100694.66;7365287;19;20025;-62
2023/11/15 05:35:15;;;;;;;0.00;0.00;;;;;;;8.98;70.50;100695.66;7363595;19;20510;-63
2023/11/15 05:37:40;;;;;;;0.00;0.00;;;;;;;9.08;70.48;100713.72;7360961;19;20034;-63
2023/11/15 05:40:07;;;;;;;0.00;0.00;;;;;;;8.97;70.65;100705.22;7368164;19;20021;-63
2023/11/15 05:42:33;;;;;;;0.00;0.00;;;;;;;9.04;70.59;100727.69;7352528;19;20014;-63
2023/11/15 05:44:59;;;;;;;0.00;0.00;;;;;;;8.97;70.90;100719.97;7364809;19;20438;-63
2023/11/15 05:47:26;;;;;;;0.10;0.10;;;;;;;9.01;70.51;100729.47;7365951;19;20030;-63
2023/11/15 05:49:52;;;;;;;0.00;0.00;;;;;;;9.02;71.03;100750.28;7365082;19;21092;-63
2023/11/15 05:52:18;;;;;;;0.10;0.10;;;;;;;8.90;70.82;100720.97;7363748;19;20011;-63
2023/11/15 05:54:44;;;;;;;0.10;0.10;;;;;;;8.94;70.89;100741.72;7364491;19;20011;-63
2023/11/15 05:57:11;;;;;;;0.10;0.10;;;;;;;8.93;71.15;100747.84;7361937;19;20101;-63
2023/11/15 05:59:37;;;;;;;0.08;0.08;;;;;;;8.95;70.98;100759.06;7367537;19;20431;-63
2023/11/15 06:02:03;;;;;;;0.08;0.08;;;;;;;8.93;70.74;100760.84;7363138;19;20498;-63
2023/11/15 06:04:28;;;;;;;0.10;0.10;;;;;;;8.89;71.38;100764.38;7362623;19;20006;-63
2023/11/15 06:06:53;;;;;;;0.10;0.10;;;;;;;8.90;70.93;100771.31;7366944;19;20017;-63
2023/11/15 06:09:19;;;;;;;0.03;0.03;;;;;;;8.87;71.02;100775.69;7373443;19;20038;-63
2023/11/15 06:11:44;;;;;;;0.00;0.00;;;;;;;8.78;70.94;100761.06;7371979;19;20014;-63
2023/11/15 06:14:14;;;;;;;0.10;0.10;;;;;;;8.82;71.00;100763.63;7372908;19;20588;-63
2023/11/15 06:16:39;;;;;;;0.03;0.03;;;;;;;8.84;70.86;100771.41;7358727;19;20038;-63
2023/11/15 06:19:07;;;;;;;0.10;0.10;;;;;;;8.86;70.99;100780.03;7365846;19;20405;-63
2023/11/15 06:21:36;;;;;;;0.10;0.10;;;;;;;8.79;71.10;100770.59;7357330;19;20493;-63
2023/11/15 06:24:01;;;;;;;0.00;0.00;;;;;;;8.82;71.11;100779.25;7362373;19;20599;-63
2023/11/15 06:26:28;;;;;;;0.00;0.00;;;;;;;8.75;70.96;100763.72;7360740;19;20014;-63
2023/11/15 06:28:54;;;;;;;0.10;0.10;;;;;;;8.73;70.75;100752.47;7366433;19;20014;-63
2023/11/15 06:31:20;;;;;;;0.00;0.00;;;;;;;8.73;71.01;100778.50;7355496;19;20089;-63
2023/11/15 06:33:46;;;;;;;0.10;0.10;;;;;;;8.76;71.19;100781.91;7366117;19;20667;-63
2023/11/15 06:36:12;;;;;;;0.10;0.10;;;;;;;8.70;71.41;100779.41;7362532;19;20025;-63
2023/11/15 06:38:37;;;;;;;0.00;0.00;;;;;;;8.75;71.10;100794.94;7365900;19;20052;-63
2023/11/15 06:41:05;;;;;;;0.10;0.10;;;;;;;8.74;71.31;100780.22;7360763;19;20015;-63
2023/11/15 06:43:31;;;;;;;0.10;0.10;;;;;;;8.67;71.21;100786.38;7361897;19;20018;-63
2023/11/15 06:45:57;;;;;;;0.00;0.00;;;;;;;8.69;71.42;100798.50;7353172;19;20007;-63
2023/11/15 06:48:23;;;;;;;0.10;0.10;;;;;;;8.64;71.33;100802.06;7364807;19;19998;-63
2023/11/15 06:50:49;;;;;;;0.10;0.10;;;;;;;8.70;71.26;100807.16;7362705;19;20446;-62
2023/11/15 06:53:15;;;;;;;0.00;0.00;;;;;;;8.47;71.08;100773.66;7365489;19;20005;-63
2023/11/15 06:55:40;;;;;;;0.00;0.00;;;;;;;8.48;71.27;100784.03;7335180;19;20010;-63
2023/11/15 06:58:07;;;;;;;0.00;0.00;;;;;;;8.69;71.02;100821.06;7359421;19;20015;-63
2023/11/15 07:00:34;;;;;;;0.08;0.08;;;;;;;8.57;71.41;100802.13;7363489;19;20048;-63
2023/11/15 07:03:03;;;;;;;0.00;0.00;;;;;;;8.63;71.09;100829.81;7362262;19;20044;-63
2023/11/15 07:05:31;;;;;;;0.03;0.03;;;;;;;8.65;70.78;100822.00;7357214;19;20011;-62
2023/11/15 07:07:56;;;;;;;0.10;0.10;;;;;;;8.48;70.85;100797.03;7369466;19;20010;-63
2023/11/15 07:10:22;;;;;;;0.08;0.08;;;;;;;8.61;71.24;100838.53;7355910;19;20827;-63
2023/11/15 07:12:47;;;;;;;0.00;0.00;;;;;;;8.48;70.98;100812.66;7362883;19;20047;-63
2023/11/15 07:15:16;;;;;;;0.10;0.10;;;;;;;8.48;71.21;100810.06;7358921;19;20045;-63
2023/11/15 07:17:42;;;;;;;0.00;0.00;;;;;;;8.47;71.17;100829.16;7364095;19;20010;-63
2023/11/15 07:20:09;;;;;;;0.10;0.10;;;;;;;8.57;71.23;100841.19;7361335;19;20029;-63
2023/11/15 07:22:36;;;;;;;0.08;0.08;;;;;;;8.55;71.36;100837.72;7357325;19;20345;-63
2023/11/15 07:25:03;;;;;;;0.10;0.10;;;;;;;8.32;71.48;100808.50;7359168;19;20006;-63
2023/11/15 07:27:31;;;;;;;0.10;0.10;;;;;;;8.52;71.14;100855.13;7361655;19;20099;-63
2023/11/15 07:29:56;;;;;;;;;;;;;;;8.54;70.94;100848.16;7360890;19;20022;-63
2023/11/15 07:32:22;;;;;;;0.10;0.10;;;;;;;8.51;71.16;100856.84;7362121;19;19934;-62
2023/11/15 07:34:47;;;;;;;0.00;0.00;;;;;;;8.35;70.90;100833.59;7360198;19;20105;-63
2023/11/15 07:37:13;;;;;;;0.10;0.10;;;;;;;8.41;71.36;100846.56;7354518;19;20011;-63
2023/11/15 07:39:38;;;;;;;0.00;0.00;;;;;;;8.36;71.04;100825.78;7362205;19;20014;-63
2023/11/15 07:42:04;;;;;;;0.00;0.00;;;;;;;8.31;71.22;100832.75;7345531;19;20417;-63
2023/11/15 07:44:30;;;;;;;0.03;0.03;;;;;;;8.23;71.51;100821.59;7358524;19;20010;-63
2023/11/15 07:46:58;;;;;;;0.10;0.10;;;;;;;8.42;71.26;100867.38;7360901;19;20007;-63
2023/11/15 07:49:24;;;;;;;0.00;0.00;;;;;;;8.41;71.54;100865.63;7357429;19;20078;-63
2023/11/15 07:51:50;;;;;;;0.00;0.00;;;;;;;8.24;71.51;100844.13;7360508;19;20421;-63
2023/11/15 07:54:16;;;;;;;0.10;0.10;;;;;;;8.36;71.52;100866.53;7361037;19;20053;-63
2023/11/15 07:56:43;;;;;;;0.00;0.00;;;;;;;8.40;71.80;100869.13;7357027;19;20010;-63
2023/11/15 07:59:10;;;;;;;0.03;0.03;;;;;;;8.41;71.55;100881.25;7358719;19;20399;-63
2023/11/15 08:01:37;;;;;;;0.00;0.00;;;;;;;8.37;71.34;100876.13;7356597;19;20010;-63
2023/11/15 08:04:03;;;;;;;0.10;0.10;;;;;;;8.37;71.46;100873.53;7368446;19;20408;-63
2023/11/15 08:06:29;;;;;;;0.08;0.08;;;;;;;8.08;71.31;100833.03;7375994;19;20014;-63
2023/11/15 08:08:54;;;;;;;0.10;0.10;;;;;;;8.35;71.76;100889.09;7377799;19;20041;-63
2023/11/15 08:11:23;;;;;;;0.10;0.10;;;;;;;8.33;71.77;100883.06;7371208;19;20446;-63
2023/11/15 08:13:48;;;;;;;0.00;0.00;;;;;;;8.36;71.72;100901.25;7355546;19;20458;-63
2023/11/15 08:16:15;;;;;;;0.00;0.00;;;;;;;8.33;71.89;100898.66;7367980;19;20021;-63
2023/11/15 08:18:42;;;;;;;0.10;0.10;;;;;;;8.33;71.74;100888.25;7370477;19;20017;-63
2023/11/15 08:21:09;;;;;;;0.00;0.00;;;;;;;8.42;71.70;100903.81;7373003;19;20461;-63
2023/11/15 08:23:35;;;;;;;0.00;0.00;;;;;;;8.36;71.88;100897.75;7373051;19;20028;-63
2023/11/15 08:26:02;;;;;;;0.10;0.10;;;;;;;8.22;72.15;100885.78;7364156;19;20545;-63
2023/11/15 08:28:30;;;;;;;0.10;0.10;;;;;;;8.41;71.84;100912.47;7365966;19;20021;-63
2023/11/15 08:30:56;;;;;;;;;;;;;;;8.48;71.62;100918.50;7364378;19;20010;-63
2023/11/15 08:33:21;;;;;;;0.10;0.10;;;;;;;8.45;71.75;100916.78;7369957;19;19922;-63
2023/11/15 08:35:47;;;;;;;0.00;0.00;;;;;;;8.35;71.89;100907.31;7363455;19;20010;-63
2023/11/15 08:38:14;;;;;;;0.00;0.00;;;;;;;8.41;71.75;100917.69;7366905;19;20039;-63
2023/11/15 08:40:39;;;;;;;0.10;0.10;;;;;;;8.44;72.18;100912.47;7355246;19;20010;-63
2023/11/15 08:43:07;;;;;;;0.05;0.05;;;;;;;8.35;71.93;100899.50;7367400;19;20455;-63
2023/11/15 08:45:32;;;;;;;0.10;0.10;;;;;;;8.37;72.07;100907.34;7362945;19;20030;-63
2023/11/15 08:47:58;;;;;;;0.08;0.08;;;;;;;8.54;71.99;100939.25;7367705;19;20007;-63
2023/11/15 08:50:24;;;;;;;0.03;0.03;;;;;;;8.55;72.06;100957.44;7352721;19;20006;-63
2023/11/15 08:52:49;;;;;;;0.00;0.00;;;;;;;8.61;72.60;100961.72;7355071;19;20380;-63
2023/11/15 08:55:15;;;;;;;0.10;0.10;;;;;;;8.52;72.30;100935.81;7363527;19;20011;-63
2023/11/15 08:57:40;;;;;;;0.10;0.10;;;;;;;8.71;72.78;100952.06;7362529;19;20102;-63
2023/11/15 09:00:15;;;;;;;0.00;0.00;;;;;;;8.77;72.50;100952.03;7366236;19;20113;-63
2023/11/15 09:02:47;;;;;;;0.03;0.03;;;;;;;8.93;72.80;100964.00;7366156;19;20093;-63
2023/11/15 09:05:14;;;;;;;0.05;0.05;;;;;;;9.06;72.92;100962.09;7362673;19;20004;-63
2023/11/15 09:07:40;;;;;;;0.10;0.10;;;;;;;9.24;73.29;100961.00;7368447;19;20794;-63
2023/11/15 09:10:11;;;;;;;0.03;0.03;;;;;;;9.34;72.49;100940.00;7362684;19;20577;-63
2023/11/15 09:12:37;;;;;;;0.10;0.10;;;;;;;9.55;72.65;100954.47;7356645;19;20010;-63
2023/11/15 09:15:11;;;;;;;0.00;0.00;;;;;;;9.73;72.25;100952.47;7358694;19;20104;-63
2023/11/15 09:17:45;;;;;;;0.00;0.00;;;;;;;9.90;72.58;100955.69;7366542;19;20053;-63
2023/11/15 09:20:12;;;;;;;0.08;0.08;;;;;;;10.06;72.46;100944.13;7346713;19;20070;-63
2023/11/15 09:22:38;;;;;;;0.10;0.10;;;;;;;10.31;72.08;100962.00;7363597;19;20117;-63
2023/11/15 09:25:06;;;;;;;0.10;0.10;;;;;;;10.45;71.91;100970.47;7365608;19;20562;-63
2023/11/15 09:27:32;;;;;;;0.00;0.00;;;;;;;10.48;71.00;100949.50;7367745;19;20022;-63
2023/11/15 09:29:57;;;;;;;0.00;0.00;;;;;;;10.67;71.16;100950.03;7361572;19;20490;-63
2023/11/15 09:32:25;;;;;;;0.10;0.10;;;;;;;10.96;71.12;100965.16;7360914;19;20014;-63
2023/11/15 09:34:50;;;;;;;0.10;0.10;;;;;;;11.04;70.23;100965.84;7364277;19;20026;-63
2023/11/15 09:37:16;;;;;;;0.10;0.10;;;;;;;11.29;69.86;100965.31;7359899;19;20023;-63
2023/11/15 09:39:43;;;;;;;0.10;0.10;;;;;;;11.46;70.31;100968.47;7368340;19;20021;-63
2023/11/15 09:42:09;;;;;;;0.10;0.10;;;;;;;11.67;70.15;100978.44;7361492;19;20698;-63
2023/11/15 09:44:38;;;;;;;0.00;0.00;;;;;;;11.89;69.94;100968.34;7365637;19;20013;-63
2023/11/15 09:47:06;;;;;;;0.00;0.00;;;;;;;11.93;68.93;100958.69;7363583;19;20022;-63
2023/11/15 09:49:35;;;;;;;0.10;0.10;;;;;;;12.20;68.76;100978.94;7364825;19;20029;-63
2023/11/15 09:52:02;;;;;;;0.10;0.10;;;;;;;12.41;68.61;100992.38;7367019;19;20466;-62
2023/11/15 09:54:28;;;;;;;0.10;0.10;;;;;;;12.58;67.93;100987.56;7373484;19;20027;-62
2023/11/15 09:56:53;;;;;;;0.10;0.10;;;;;;;12.80;68.40;100990.47;7363162;19;20015;-62
2023/11/15 09:59:19;;;;;;;0.10;0.10;;;;;;;12.96;67.09;101001.41;7362771;19;20011;-63
2023/11/15 10:01:48;;;;;;;0.10;0.10;;;;;;;13.13;67.63;100993.94;7361770;19;20650;-63
2023/11/15 10:04:29;;;;;;;0.10;0.10;;;;;;;13.36;68.85;100995.91;7361054;19;20010;-63
2023/11/15 10:07:01;;;;;;;0.10;0.10;;;;;;;13.46;66.25;101001.75;7361274;19;20013;-63
2023/11/15 10:09:38;;;;;;;0.10;0.10;;;;;;;13.74;67.60;101002.63;7363967;19;20014;-63
2023/11/15 10:12:05;;;;;;;0.10;0.10;;;;;;;13.81;65.42;100999.81;7356831;19;20093;-63
2023/11/15 10:14:32;;;;;;;0.10;0.10;;;;;;;13.99;64.73;101009.75;7369365;19;20011;-63
2023/11/15 10:17:00;;;;;;;0.10;0.10;;;;;;;14.12;64.80;101008.41;7368801;19;20010;-63
2023/11/15 10:19:27;;;;;;;0.10;0.10;;;;;;;14.30;64.54;101006.13;7362332;19;20007;-63
2023/11/15 10:22:04;;;;;;;0.10;0.10;;;;;;;14.39;64.46;100995.28;7360843;19;20015;-63
2023/11/15 10:24:30;;;;;;;0.10;0.10;;;;;;;14.40;62.69;100982.09;7354933;19;20006;-63
2023/11/15 10:27:08;;;;;;;0.10;0.10;;;;;;;14.69;63.15;101003.91;7364945;19;20014;-62
2023/11/15 10:29:39;;;;;;;0.10;0.10;;;;;;;14.87;63.38;101002.44;7360414;19;20526;-63
2023/11/15 10:32:05;;;;;;;0.10;0.10;;;;;;;14.97;62.04;101009.06;7359024;19;20029;-62
2023/11/15 10:34:32;;;;;;;0.10;0.10;;;;;;;15.00;61.12;100993.16;7358356;19;20003;-63
2023/11/15 10:37:00;;;;;;;0.10;0.10;;;;;;;15.30;62.02;101014.84;7363227;19;20017;-63
2023/11/15 10:39:26;;;;;;;0.10;0.10;;;;;;;15.41;61.46;101014.44;7362240;19;20104;-63
2023/11/15 10:41:52;;;;;;;0.08;0.08;;;;;;;15.26;61.33;100966.78;7356954;19;20473;-63
2023/11/15 10:44:21;;;;;;;0.20;0.20;;;;;;;15.65;59.54;101021.44;7357665;19;20039;-63
2023/11/15 10:46:48;;;;;;;0.10;0.10;;;;;;;15.78;59.44;101014.78;7358704;19;20632;-63
2023/11/15 10:49:17;;;;;;;0.15;0.15;;;;;;;15.90;60.03;101025.75;7362009;19;20537;-62
2023/11/15 10:51:48;;;;;;;0.10;0.10;;;;;;;15.99;60.34;101012.22;7359401;19;20014;-63
2023/11/15 10:54:14;;;;;;;0.10;0.10;;;;;;;15.92;58.17;100990.56;7358230;19;20014;-62
2023/11/15 10:56:41;;;;;;;0.10;0.10;;;;;;;16.23;58.60;101024.41;7354472;19;20008;-63
2023/11/15 10:59:10;;;;;;;0.10;0.10;;;;;;;16.37;57.88;101012.44;7361080;19;20489;-63
2023/11/15 11:01:36;;;;;;;0.10;0.10;;;;;;;16.49;58.02;101028.59;7360364;19;20562;-63
2023/11/15 11:04:05;;;;;;;0.10;0.10;;;;;;;16.58;58.00;101016.81;7358010;19;20493;-63
2023/11/15 11:06:58;;;;;;;0.10;0.10;;;;;;;16.83;60.92;101014.03;7355613;19;20014;-63
2023/11/15 11:09:39;;;;;;;0.10;0.10;;;;;;;17.09;58.98;101036.63;7358641;19;20082;-63
2023/11/15 11:12:12;;;;;;;0.10;0.10;;;;;;;17.22;56.92;101042.19;7349323;19;20015;-63
2023/11/15 11:14:38;;;;;;;0.10;0.10;;;;;;;17.30;56.47;101046.19;7356065;19;20623;-63
2023/11/15 11:17:30;;;;;;;0.10;0.10;;;;;;;17.61;60.94;101058.00;7358906;19;20026;-63
2023/11/15 11:19:58;;;;;;;0.10;0.10;;;;;;;17.56;55.56;101038.88;7355685;19;20038;-63
2023/11/15 11:22:25;;;;;;;0.05;0.05;;;;;;;17.77;54.04;101048.47;7358638;19;20086;-63
2023/11/15 11:25:10;;;;;;;0.10;0.10;;;;;;;18.00;58.31;101067.66;7356954;19;21259;-62
2023/11/15 11:27:42;;;;;;;0.10;0.10;;;;;;;18.07;54.90;101056.72;7360502;19;20007;-63
2023/11/15 11:30:11;;;;;;;0.10;0.10;;;;;;;18.10;53.47;101053.09;7337957;19;20018;-63